Terminal Aerodrome Forecast
Issued by NWS Mt. Holly, NJ

Home | Current Version | Previous Version | Text Only | Print | Product List | Glossary On
Versions: 1 2 3 4 5 6 7 8 9 10 11 12
000
FTUS41 KPHI 300500
TAFRDG
TAF
KRDG 300526Z 3006/3106 14005KT P6SM SCT040
      TEMPO 3009/3012 3SM BR
     FM301400 17005KT P6SM SCT040 BKN100
     FM301700 18008KT P6SM BKN050
     FM310300 VRB03KT P6SM SCT050 BKN100=

USA.gov is the U.S. government's official web portal to all federal, state and local government web resources and services.